• Join FlightAware (Why Join?)
  • Login
  • US Flag 
04:47PM EDT


 

Airport Tracker/Info


-or-


 

Live Flight TrackerFlight Track Log ✈ DAL6201 ✈ 28-Apr-2013 ✈ KPIT - KLGA

Flight Track Log - Related Links

Times and Time Zones

All times are in EDT time to prevent confusion due to time zone crossing. See the DAL6201 flight status page for this flight to view local times or setup timezone preferences in your user account.

Time Position Orientation Groundspeed Altitude Reporting Facility
EDT Latitude Longitude Course Direction KTS MPH feet Rate Location/Type
07:14PM 40.5161 -80.0042 71° East 286 329 7,100  Level Cleveland Center
07:15PM 40.5300 -79.9056 79° East 299 344 9,900 2,760 Climbing Cleveland Center
07:16PM 40.5461 -79.7933 79° East 299 344 12,700 2,460 Climbing Cleveland Center
07:17PM 40.5617 -79.6758 80° East 306 352 14,900 1,980 Climbing Cleveland Center
07:18PM 40.5579 -79.2613 80° East  Level Estimated
07:18PM 40.5775 -79.5553 80° East 318 366 16,700  Level Cleveland Center
07:19PM 40.5932 -79.1298 71° East  Level FlightAware Approximate
07:19PM 40.5950 -79.4292 80° East 330 380 18,300  Level Cleveland Center
07:20PM 40.6125 -79.3003 80° East 344 396 20,000 1,800 Climbing Cleveland Center
07:21PM 40.6294 -79.1633 81° East 362 417 22,000 1,920 Climbing Cleveland Center
07:22PM 40.6486 -79.0233 80° East 375 432 23,900 1,680 Climbing Cleveland Center
07:23PM 40.6633 -78.8833 82° East 380 437 25,400 1,200 Climbing Cleveland Center
07:24PM 40.6839 -78.7322 80° East 400 460 26,400 480 Climbing Cleveland Center
07:26PM 40.7306 -78.3603 80° East 455 524 27,000 180 Climbing New York Center
07:27PM 40.7914 -78.2244 59° Northeast 471 542 27,000  Level New York Center
07:28PM 40.8689 -78.0847 54° Northeast 465 535 27,000 -840 Level New York Center
07:29PM 40.9197 -77.9336 66° East 460 529 25,400 -1,020 Descending New York Center
07:30PM 40.9356 -77.7758 82° East 441 507 25,000 -240 Descending New York Center
07:31PM 40.9467 -77.6203 85° East 429 494 25,000  Level New York Center
07:32PM 40.9597 -77.4622 84° East 429 494 25,000 -360 Level New York Center
07:33PM 40.9539 -77.3075 93° East 429 494 24,300 -960 Descending New York Center
07:34PM 40.9497 -77.1533 92° East 423 487 23,200 -1,140 Descending New York Center
07:35PM 40.9453 -77.0019 92° East 423 487 22,100 -1,020 Descending New York Center
07:36PM 40.9386 -76.8500 93° East 418 481 21,200 -900 Descending New York Center
07:37PM 40.9339 -76.6986 92° East 413 475 20,300 -960 Descending New York Center
07:38PM 40.9289 -76.5469 92° East 413 475 19,400 -1,140 Descending New York Center
07:39PM 40.9239 -76.3872 92° East 406 467 18,100 -1,260 Descending New York Center
07:40PM 40.9181 -76.2439 93° East 393 452 16,900 -1,200 Descending New York Center
07:41PM 40.8906 -76.1183 106° East 365 420 15,700 -1,140 Descending New York Center
07:42PM 40.8661 -76.0119 107° East 354 407 14,700 -1,080 Descending New York Center
07:43PM 40.8325 -75.8778 108° East 348 400 13,600 -900 Descending New York Center
07:44PM 40.8003 -75.7547 109° East 348 400 13,000 -300 Descending New York Center
07:45PM 40.7736 -75.6458 108° East 348 400 13,000 -180 Level New York Center
07:46PM 40.7450 -75.5289 108° East 348 400 12,700 -600 Descending New York Center
07:47PM 40.7183 -75.4147 107° East 337 388 11,900 -720 Descending New York Center
07:48PM 40.6975 -75.3039 104° East 329 379 11,300 -720 Descending New York Center
07:49PM 40.6747 -75.1928 105° East 319 367 10,500 -720 Descending New York Center
07:50PM 40.6242 -75.0911 123° Southeast 303 349 9,900 -300 Descending New York Center
07:51PM 40.5731 -75.0114 130° Southeast 297 342 9,900  Level New York Center
07:52PM 40.5408 -74.9192 115° Southeast 284 327 9,900  Level New York Center
07:53PM 40.5167 -74.8306 110° East 276 318 10,000 60 Climbing New York Center
07:53PM 40.5000 -74.7833 115° Southeast 285 328 10,000  Level New York TRACON
07:54PM 40.4667 -74.7000 118° Southeast 286 329 10,000  Level New York TRACON
07:55PM 40.4500 -74.6000 102° East 289 333 10,000 -420 Level New York TRACON
07:56PM 40.4333 -74.5000 102° East 295 339 9,200 -1,140 Descending New York TRACON
07:57PM 40.4667 -74.4167 62° Northeast 280 322 7,900 -1,200 Descending New York TRACON
07:58PM 40.4833 -74.3167 78° East 277 319 7,000 -480 Descending New York TRACON
07:59PM 40.5167 -74.2167 66° East 268 308 7,000 -600 Level New York TRACON
08:00PM 40.5500 -74.1333 62° Northeast 275 316 5,800 -1,500 Descending New York TRACON
08:01PM 40.6000 -74.0667 45° Northeast 278 320 4,100 -900 Descending New York TRACON
08:02PM 40.6667 -74.0500 11° North 274 315 4,000 -60 Descending New York TRACON
08:03PM 40.7500 -74.0167 17° North 268 308 4,000  Level New York TRACON
08:04PM 40.8000 -73.9833 27° Northeast 210 242 4,000  Level New York TRACON
08:05PM 40.8667 -73.9500 21° North 209 241 4,000 -360 Level New York TRACON
08:06PM 40.9000 -73.9000 49° Northeast 208 239 3,300 -540 Descending New York TRACON
08:07PM 40.9333 -73.8667 37° Northeast 207 238 3,000 -540 Descending New York TRACON
08:08PM 40.9333 -73.8000 90° East 192 221 2,300 -540 Descending New York TRACON
08:09PM 40.9000 -73.7833 159° South 157 181 2,000 -240 Descending New York TRACON
08:10PM 40.8667 -73.8000 201° Southwest 121 139 1,900 -360 Descending New York TRACON
08:11PM 40.8333 -73.8333 217° Southwest 118 136 1,300 -660 Descending New York TRACON
08:12PM 40.8000 -73.8500 201° Southwest 126 145 600 -720 Descending New York TRACON